VOZ1531 YMHB-YMML
Flight info
| Callsign | VOZ1531 |
|---|---|
| Flight time | N/A |
| Altitude | 34000 |
| Route | LATUM2/12 LATUM H111 LT H215 RAZZI W687 ML |
| Aircraft | B38M/M-SDE1FGHILORVWXY/HB1 |
Departure
| Time | 2026-04-21 11:11 |
|---|---|
| Airport | Hobart International Airport (YMHB) |
Arrival
| Time | N/A |
|---|---|
| Airport | Melbourne Airport (YMML) |
| Time | Latitude | Longitude | Altitude | Speed | Heading |
|---|---|---|---|---|---|
| 2026-04-21 10:33 | -42.83657 | 147.50578 | 20 ft | 0 kts | 209° |
| 2026-04-21 10:48 | -42.83650 | 147.50583 | 20 ft | 3 kts | 209° |
| 2026-04-21 10:48 | -42.83634 | 147.50595 | 20 ft | 3 kts | 209° |
| 2026-04-21 10:48 | -42.83618 | 147.50607 | 21 ft | 3 kts | 209° |
| 2026-04-21 10:49 | -42.83604 | 147.50617 | 21 ft | 0 kts | 214° |
| 2026-04-21 10:49 | -42.83600 | 147.50621 | 20 ft | 0 kts | 135° |
| 2026-04-21 10:57 | -42.83615 | 147.50639 | 21 ft | 0 kts | 135° |
| 2026-04-21 11:03 | -42.83617 | 147.50643 | 20 ft | 2 kts | 135° |
| 2026-04-21 11:03 | -42.83631 | 147.50662 | 21 ft | 4 kts | 135° |
| 2026-04-21 11:03 | -42.83661 | 147.50702 | 20 ft | 8 kts | 134° |
| 2026-04-21 11:04 | -42.83696 | 147.50763 | 21 ft | 8 kts | 109° |
| 2026-04-21 11:04 | -42.83686 | 147.50821 | 24 ft | 6 kts | 61° |
| 2026-04-21 11:04 | -42.83678 | 147.50882 | 24 ft | 9 kts | 107° |
| 2026-04-21 11:04 | -42.83734 | 147.50971 | 25 ft | 17 kts | 134° |
| 2026-04-21 11:05 | -42.83821 | 147.51090 | 24 ft | 18 kts | 135° |
| 2026-04-21 11:05 | -42.83855 | 147.51202 | 25 ft | 9 kts | 59° |
| 2026-04-21 11:05 | -42.83811 | 147.51265 | 22 ft | 0 kts | 45° |
| 2026-04-21 11:07 | -42.83811 | 147.51266 | 22 ft | 1 kts | 45° |
| 2026-04-21 11:07 | -42.83781 | 147.51308 | 20 ft | 11 kts | 49° |
| 2026-04-21 11:07 | -42.83793 | 147.51417 | 18 ft | 17 kts | 134° |
| 2026-04-21 11:08 | -42.83894 | 147.51558 | 18 ft | 24 kts | 135° |
| 2026-04-21 11:08 | -42.84025 | 147.51742 | 19 ft | 30 kts | 134° |
| 2026-04-21 11:08 | -42.84170 | 147.51946 | 21 ft | 31 kts | 134° |
| 2026-04-21 11:08 | -42.84329 | 147.52163 | 22 ft | 34 kts | 136° |
| 2026-04-21 11:09 | -42.84498 | 147.52313 | 19 ft | 22 kts | 163° |
| 2026-04-21 11:09 | -42.84560 | 147.52427 | 16 ft | 12 kts | 39° |
| 2026-04-21 11:09 | -42.84502 | 147.52385 | 19 ft | 13 kts | 311° |
| 2026-04-21 11:09 | -42.84326 | 147.52141 | 22 ft | 61 kts | 315° |
| 2026-04-21 11:10 | -42.83914 | 147.51583 | 18 ft | 105 kts | 316° |
| 2026-04-21 11:10 | -42.83311 | 147.50802 | 75 ft | 132 kts | 317° |
| 2026-04-21 11:10 | -42.82620 | 147.49823 | 254 ft | 151 kts | 317° |
| 2026-04-21 11:10 | -42.81880 | 147.48727 | 490 ft | 164 kts | 320° |
| 2026-04-21 11:11 | -42.81065 | 147.47696 | 911 ft | 160 kts | 319° |
| 2026-04-21 11:11 | -42.80270 | 147.46640 | 1303 ft | 159 kts | 317° |
| 2026-04-21 11:11 | -42.79496 | 147.45593 | 1694 ft | 159 kts | 317° |
| 2026-04-21 11:11 | -42.78723 | 147.44530 | 2098 ft | 157 kts | 317° |
| 2026-04-21 11:12 | -42.77958 | 147.43477 | 2481 ft | 155 kts | 317° |
| 2026-04-21 11:12 | -42.77207 | 147.42445 | 2887 ft | 152 kts | 319° |
| 2026-04-21 11:12 | -42.76471 | 147.41436 | 3280 ft | 149 kts | 319° |
| 2026-04-21 11:12 | -42.75752 | 147.40449 | 3679 ft | 145 kts | 319° |
| 2026-04-21 11:13 | -42.75051 | 147.39488 | 4053 ft | 141 kts | 319° |
| 2026-04-21 11:13 | -42.74376 | 147.38564 | 4419 ft | 137 kts | 319° |
| 2026-04-21 11:13 | -42.73716 | 147.37660 | 4808 ft | 131 kts | 319° |
| 2026-04-21 11:13 | -42.73072 | 147.36779 | 4888 ft | 149 kts | 319° |
| 2026-04-21 11:14 | -42.72211 | 147.35640 | 4314 ft | 191 kts | 318° |
| 2026-04-21 11:14 | -42.71228 | 147.34315 | 4387 ft | 210 kts | 318° |
| 2026-04-21 11:14 | -42.70192 | 147.32900 | 4800 ft | 193 kts | 317° |